createdAt,value
2018-09-25T00:01:45.881Z,83.80
2018-09-25T00:04:20.636Z,82.70
2018-09-25T00:06:55.359Z,82.50
2018-09-25T00:09:30.079Z,82.60
2018-09-25T00:12:04.883Z,83.00
2018-09-25T00:14:39.409Z,82.50
2018-09-25T00:17:14.038Z,83.10
2018-09-25T00:19:48.608Z,82.50
2018-09-25T00:22:23.343Z,81.90
2018-09-25T00:24:58.042Z,82.70
2018-09-25T00:27:32.626Z,82.10
2018-09-25T00:30:07.423Z,82.40
2018-09-25T00:32:42.118Z,81.70
2018-09-25T00:35:16.855Z,81.80
2018-09-25T00:37:51.609Z,81.50
2018-09-25T00:40:26.300Z,80.90
2018-09-25T00:43:01.016Z,81.40
2018-09-25T00:45:35.595Z,80.40
2018-09-25T00:48:10.252Z,81.10
2018-09-25T00:50:44.956Z,81.10
2018-09-25T00:53:19.610Z,80.90
2018-09-25T00:55:54.217Z,81.40
2018-09-25T00:58:28.870Z,81.20
2018-09-25T01:01:03.652Z,80.90
2018-09-25T01:03:38.435Z,81.10
2018-09-25T01:06:13.227Z,81.30
2018-09-25T01:08:47.735Z,81.20
2018-09-25T01:11:22.415Z,81.00
2018-09-25T01:13:57.319Z,80.70
2018-09-25T01:16:32.064Z,79.80
2018-09-25T01:19:06.721Z,80.10
2018-09-25T01:21:41.292Z,80.90
2018-09-25T01:24:15.792Z,81.40
2018-09-25T01:26:50.621Z,81.40
2018-09-25T01:29:25.386Z,81.80
2018-09-25T01:32:00.162Z,82.20
2018-09-25T01:34:34.741Z,81.80
2018-09-25T01:37:09.331Z,82.30
2018-09-25T01:39:43.870Z,81.50
2018-09-25T01:42:18.583Z,81.70
2018-09-25T01:44:53.238Z,80.80
2018-09-25T01:47:27.911Z,82.90
2018-09-25T01:50:02.601Z,82.10
2018-09-25T01:52:37.217Z,81.60
2018-09-25T01:55:11.893Z,82.70
2018-09-25T01:57:46.499Z,82.10
2018-09-25T02:00:21.123Z,82.40
2018-09-25T02:02:55.793Z,82.10
2018-09-25T02:05:30.411Z,81.40
2018-09-25T02:08:04.990Z,81.60
2018-09-25T02:10:39.687Z,81.80
2018-09-25T02:13:14.453Z,81.40
2018-09-25T02:15:49.174Z,81.10
2018-09-25T02:18:23.705Z,82.40
2018-09-25T02:20:58.321Z,81.60
2018-09-25T02:23:33.176Z,80.80
2018-09-25T02:26:07.843Z,81.30
2018-09-25T02:28:42.488Z,81.70
2018-09-25T02:31:17.102Z,83.20
2018-09-25T02:33:51.726Z,83.00
2018-09-25T02:36:26.480Z,82.80
2018-09-25T02:39:01.171Z,83.40
2018-09-25T02:41:35.828Z,82.40
2018-09-25T02:44:10.569Z,83.70
2018-09-25T02:46:51.585Z,84.20
2018-09-25T02:49:26.280Z,84.30
2018-09-25T02:52:00.990Z,84.20
2018-09-25T02:54:35.605Z,85.50
2018-09-25T02:57:10.264Z,85.00
2018-09-25T02:59:44.934Z,85.30
2018-09-25T03:02:19.687Z,85.20
2018-09-25T03:04:54.453Z,84.90
2018-09-25T03:07:29.212Z,86.10
2018-09-25T03:10:03.945Z,85.60
2018-09-25T03:12:38.586Z,86.30
2018-09-25T03:15:13.299Z,86.30
2018-09-25T03:17:47.999Z,87.80
2018-09-25T03:20:22.712Z,87.70
2018-09-25T03:22:57.542Z,86.80
2018-09-25T03:28:13.130Z,87.10
2018-09-25T03:30:48.310Z,86.10
2018-09-25T03:33:23.103Z,85.50
2018-09-25T03:35:58.040Z,89.10
2018-09-25T03:38:32.792Z,90.00
2018-09-25T03:41:07.432Z,88.50
2018-09-25T03:43:42.391Z,89.10
2018-09-25T03:46:17.182Z,89.40
2018-09-25T03:48:52.002Z,87.80
2018-09-25T03:51:26.788Z,89.20
2018-09-25T03:54:01.625Z,90.10
2018-09-25T03:56:36.557Z,88.80
2018-09-25T03:59:11.724Z,89.70
2018-09-25T04:04:51.741Z,90.10
2018-09-25T04:07:44.639Z,90.30
2018-09-25T04:10:39.052Z,89.40
2018-09-25T04:13:19.579Z,90.20
2018-09-25T04:15:59.858Z,90.20
2018-09-25T04:18:40.211Z,87.70
2018-09-25T04:21:15.193Z,89.30
2018-09-25T04:23:49.956Z,89.20
2018-09-25T04:26:24.787Z,89.50
2018-09-25T04:31:35.006Z,88.40
2018-09-25T04:34:09.841Z,89.00
2018-09-25T04:36:44.475Z,88.70
2018-09-25T04:39:19.304Z,88.70
2018-09-25T04:41:53.991Z,88.70
2018-09-25T04:44:29.955Z,88.40
2018-09-25T04:47:09.341Z,88.40
2018-09-25T04:49:46.362Z,88.90
2018-09-25T04:52:21.086Z,88.00
2018-09-25T04:54:56.649Z,88.60
2018-09-25T04:57:31.686Z,87.80
2018-09-25T05:00:07.198Z,86.40
2018-09-25T05:02:42.670Z,87.50
2018-09-25T05:05:21.387Z,87.50
2018-09-25T05:08:00.545Z,86.40
2018-09-25T05:10:40.358Z,86.80
2018-09-25T05:13:20.205Z,88.50
2018-09-25T05:16:00.111Z,85.60
2018-09-25T05:21:19.631Z,85.50
2018-09-25T05:24:00.530Z,84.90
2018-09-25T05:26:39.042Z,84.10
2018-09-25T05:29:18.021Z,85.60
2018-09-25T05:31:57.186Z,85.80
2018-09-25T05:34:36.939Z,87.20
2018-09-25T05:37:12.268Z,86.20
2018-09-25T05:39:47.037Z,85.80
2018-09-25T05:42:21.838Z,85.30
2018-09-25T05:47:47.700Z,85.60
2018-09-25T05:52:56.580Z,85.70
2018-09-25T05:55:31.414Z,85.10
2018-09-25T05:58:06.046Z,84.80
2018-09-25T06:00:40.997Z,83.00
2018-09-25T06:03:24.442Z,85.40
2018-09-25T06:05:59.173Z,84.40
2018-09-25T06:08:33.856Z,84.70
2018-09-25T06:11:09.262Z,84.40
2018-09-25T06:13:44.008Z,85.30
2018-09-25T06:16:19.965Z,81.70
2018-09-25T06:18:54.694Z,81.60
2018-09-25T06:21:29.327Z,80.40
2018-09-25T06:24:21.197Z,81.90
2018-09-25T06:27:09.192Z,81.20
2018-09-25T06:29:43.937Z,78.50
2018-09-25T06:32:18.551Z,79.10
2018-09-25T06:34:53.452Z,77.20
2018-09-25T06:37:28.173Z,82.10
2018-09-25T06:40:03.689Z,82.90
2018-09-25T06:42:38.561Z,77.20
2018-09-25T06:45:13.397Z,81.50
2018-09-25T06:47:48.040Z,81.80
2018-09-25T06:50:24.884Z,81.20
2018-09-25T06:53:00.000Z,79.00
2018-09-25T06:55:34.782Z,78.70
2018-09-25T06:58:09.509Z,79.50
2018-09-25T07:00:44.398Z,76.80
2018-09-25T07:03:21.340Z,77.10
2018-09-25T07:05:56.041Z,78.40
2018-09-25T07:08:30.698Z,74.50
2018-09-25T07:11:05.220Z,74.80
2018-09-25T07:13:40.151Z,72.80
2018-09-25T07:16:14.796Z,74.20
2018-09-25T07:18:49.594Z,72.60
2018-09-25T07:21:24.216Z,75.00
2018-09-25T07:23:58.942Z,72.30
2018-09-25T07:26:33.599Z,73.80
2018-09-25T07:29:08.428Z,71.90
2018-09-25T07:31:43.109Z,70.50
2018-09-25T07:34:17.757Z,71.90
2018-09-25T07:36:52.366Z,70.90
2018-09-25T07:39:26.869Z,70.10
2018-09-25T07:42:01.453Z,71.40
2018-09-25T07:44:36.081Z,69.40
2018-09-25T07:47:10.821Z,69.00
2018-09-25T07:49:45.568Z,68.90
2018-09-25T07:52:20.254Z,69.40
2018-09-25T07:54:54.954Z,70.20
2018-09-25T07:57:29.612Z,69.00
2018-09-25T08:00:04.370Z,68.60
2018-09-25T08:02:39.031Z,69.10
2018-09-25T08:05:13.848Z,68.30
2018-09-25T08:07:48.659Z,68.90
2018-09-25T08:10:23.323Z,68.50
2018-09-25T08:12:58.802Z,68.70
2018-09-25T08:15:33.554Z,67.90
2018-09-25T08:18:08.303Z,67.00
2018-09-25T08:20:42.979Z,66.80
2018-09-25T08:23:17.662Z,67.00
2018-09-25T08:25:52.289Z,68.00
2018-09-25T08:28:27.379Z,66.70
2018-09-25T08:31:02.082Z,66.90
2018-09-25T08:33:36.669Z,66.40
2018-09-25T08:36:11.286Z,68.30
2018-09-25T08:38:45.831Z,65.90
2018-09-25T08:41:20.468Z,67.20
2018-09-25T08:43:54.968Z,66.00
2018-09-25T08:46:29.643Z,67.50
2018-09-25T08:49:04.390Z,65.40
2018-09-25T08:51:39.207Z,64.10
2018-09-25T08:54:13.903Z,64.40
2018-09-25T08:56:48.531Z,64.40
2018-09-25T08:59:23.440Z,63.50
2018-09-25T09:01:57.952Z,63.40
2018-09-25T09:04:32.889Z,64.90
2018-09-25T09:07:07.661Z,63.30
2018-09-25T09:09:42.403Z,64.10
2018-09-25T09:12:17.001Z,64.60
2018-09-25T09:14:51.530Z,64.50
2018-09-25T09:17:26.278Z,62.90
2018-09-25T09:20:01.164Z,64.70
2018-09-25T09:22:35.830Z,61.10
2018-09-25T09:25:10.894Z,65.00
2018-09-25T09:27:45.778Z,65.40
2018-09-25T09:30:20.373Z,63.40
2018-09-25T09:32:55.194Z,63.20
2018-09-25T09:35:29.843Z,63.20
2018-09-25T09:38:04.495Z,61.00
2018-09-25T09:40:41.794Z,62.50
2018-09-25T09:43:16.631Z,60.40
2018-09-25T09:45:51.362Z,62.80
2018-09-25T09:48:26.184Z,61.50
2018-09-25T09:51:00.820Z,59.40
2018-09-25T09:53:35.296Z,62.30
2018-09-25T09:56:09.917Z,64.50
2018-09-25T09:58:44.542Z,64.50
2018-09-25T10:01:19.271Z,62.90
2018-09-25T10:03:53.915Z,63.30
2018-09-25T10:06:28.645Z,59.30
2018-09-25T10:09:03.351Z,63.50
2018-09-25T10:11:38.118Z,63.70
2018-09-25T10:14:13.020Z,59.60
2018-09-25T10:16:47.824Z,63.30
2018-09-25T10:19:23.258Z,62.30
2018-09-25T10:21:58.086Z,62.20
2018-09-25T10:24:32.722Z,58.80
2018-09-25T10:27:07.272Z,60.60
2018-09-25T10:29:42.115Z,57.00
2018-09-25T10:32:16.688Z,63.30
2018-09-25T10:34:58.313Z,59.20
2018-09-25T10:37:32.939Z,61.40
2018-09-25T10:40:07.594Z,55.70
2018-09-25T10:42:42.518Z,57.60
2018-09-25T10:45:17.082Z,59.00
2018-09-25T10:47:51.690Z,63.20
2018-09-25T10:50:26.491Z,61.50
2018-09-25T10:53:01.162Z,61.10
2018-09-25T10:55:35.837Z,58.70
2018-09-25T10:58:10.607Z,59.90
2018-09-25T11:00:45.312Z,57.90
2018-09-25T11:03:20.043Z,52.90
2018-09-25T11:05:54.753Z,55.50
2018-09-25T11:08:29.536Z,58.70
2018-09-25T11:11:04.141Z,56.70
2018-09-25T11:13:39.759Z,57.30
2018-09-25T11:16:14.531Z,59.80
2018-09-25T11:18:49.434Z,57.40
2018-09-25T11:21:24.130Z,58.60
2018-09-25T11:23:58.787Z,51.70
2018-09-25T11:26:33.482Z,51.10
2018-09-25T11:29:08.088Z,51.80
2018-09-25T11:31:42.772Z,54.10
2018-09-25T11:34:17.656Z,54.50
2018-09-25T11:36:52.330Z,56.20
2018-09-25T11:39:27.174Z,53.30
2018-09-25T11:42:01.867Z,55.20
2018-09-25T11:44:36.657Z,55.30
2018-09-25T11:47:11.417Z,52.60
2018-09-25T11:49:46.360Z,53.10
2018-09-25T11:52:21.030Z,54.70
2018-09-25T11:54:56.908Z,54.00
2018-09-25T11:57:31.512Z,50.50
2018-09-25T12:00:06.255Z,53.00
2018-09-25T12:02:40.894Z,49.90
2018-09-25T12:05:15.810Z,50.20
2018-09-25T12:07:50.873Z,51.10
2018-09-25T12:10:25.552Z,54.40
2018-09-25T12:13:00.235Z,52.60
2018-09-25T12:15:35.825Z,52.00
2018-09-25T12:18:10.471Z,49.50
2018-09-25T12:20:45.327Z,49.60
2018-09-25T12:23:20.080Z,53.10
2018-09-25T12:25:54.825Z,52.50
2018-09-25T12:28:29.439Z,48.40
2018-09-25T12:31:04.324Z,48.70
2018-09-25T12:33:39.153Z,50.80
2018-09-25T12:36:14.047Z,48.90
2018-09-25T12:38:48.773Z,52.10
2018-09-25T12:41:23.470Z,49.00
2018-09-25T12:43:58.264Z,47.10
2018-09-25T12:46:32.950Z,48.50
2018-09-25T12:49:07.431Z,48.90
2018-09-25T12:51:42.102Z,49.10
2018-09-25T12:54:16.810Z,46.10
2018-09-25T12:56:51.532Z,44.50
2018-09-25T12:59:26.156Z,50.00
2018-09-25T13:02:00.735Z,48.70
2018-09-25T13:04:35.203Z,49.00
2018-09-25T13:07:09.948Z,47.70
2018-09-25T13:09:44.753Z,44.70
2018-09-25T13:12:19.501Z,42.90
2018-09-25T13:14:54.233Z,46.30
2018-09-25T13:17:29.089Z,43.40
2018-09-25T13:20:03.637Z,46.30
2018-09-25T13:22:38.460Z,44.90
2018-09-25T13:25:13.297Z,44.10
2018-09-25T13:27:48.013Z,43.30
2018-09-25T13:30:22.639Z,43.90
2018-09-25T13:32:57.441Z,43.60
2018-09-25T13:35:32.149Z,46.40
2018-09-25T13:38:06.826Z,44.80
2018-09-25T13:40:41.589Z,44.30
2018-09-25T13:43:16.259Z,47.00
2018-09-25T13:45:50.908Z,45.40
2018-09-25T13:48:25.646Z,45.60
2018-09-25T13:51:00.311Z,45.30
2018-09-25T13:53:34.893Z,46.00
2018-09-25T13:56:09.586Z,44.60
2018-09-25T13:58:44.248Z,42.70
2018-09-25T14:01:18.846Z,41.60
2018-09-25T14:03:53.703Z,42.50
2018-09-25T14:06:28.435Z,43.20
2018-09-25T14:09:03.130Z,46.80
2018-09-25T14:11:37.766Z,46.90
2018-09-25T14:14:12.373Z,46.60
2018-09-25T14:16:46.981Z,47.00
2018-09-25T14:19:21.754Z,45.90
2018-09-25T14:21:56.442Z,46.50
2018-09-25T14:24:31.046Z,43.30
2018-09-25T14:27:05.712Z,43.70
2018-09-25T14:29:40.450Z,44.30
2018-09-25T14:32:15.102Z,44.10
2018-09-25T14:34:49.856Z,46.70
2018-09-25T14:37:28.525Z,44.50
2018-09-25T14:40:04.149Z,47.10
2018-09-25T14:42:41.313Z,47.30
2018-09-25T14:45:16.123Z,44.50
2018-09-25T14:47:50.915Z,44.70
2018-09-25T14:50:25.545Z,46.60
2018-09-25T14:53:00.328Z,45.80
2018-09-25T14:55:35.093Z,44.70
2018-09-25T14:58:09.726Z,45.70
2018-09-25T15:00:46.087Z,46.20
2018-09-25T15:03:20.691Z,47.30
2018-09-25T15:05:55.953Z,49.20
2018-09-25T15:08:35.936Z,47.40
2018-09-25T15:11:10.764Z,48.90
2018-09-25T15:13:45.504Z,47.70
2018-09-25T15:16:21.489Z,48.50
2018-09-25T15:18:56.932Z,46.40
2018-09-25T15:21:31.932Z,47.90
2018-09-25T15:24:06.598Z,47.60
2018-09-25T15:26:41.480Z,46.30
2018-09-25T15:29:16.526Z,49.70
2018-09-25T15:31:51.353Z,48.70
2018-09-25T15:34:26.022Z,49.80
2018-09-25T15:37:00.904Z,47.10
2018-09-25T15:39:35.601Z,47.70
2018-09-25T15:42:10.489Z,47.40
2018-09-25T15:44:45.023Z,48.00
2018-09-25T15:47:19.850Z,47.90
2018-09-25T15:49:54.588Z,48.90
2018-09-25T15:52:29.301Z,47.10
2018-09-25T15:55:04.010Z,49.20
2018-09-25T15:57:38.646Z,47.50
2018-09-25T16:00:13.756Z,49.20
2018-09-25T16:02:48.604Z,49.00
2018-09-25T16:05:23.275Z,48.90
2018-09-25T16:07:58.415Z,49.80
2018-09-25T16:10:33.244Z,49.00
2018-09-25T16:13:08.111Z,49.70
2018-09-25T16:15:43.149Z,50.30
2018-09-25T16:18:18.073Z,50.90
2018-09-25T16:20:52.815Z,51.50
2018-09-25T16:23:27.656Z,51.40
2018-09-25T16:26:02.545Z,52.40
2018-09-25T16:28:37.311Z,52.20
2018-09-25T16:31:12.015Z,52.30
2018-09-25T16:33:46.953Z,53.00
2018-09-25T16:36:21.815Z,52.90
2018-09-25T16:38:56.528Z,53.00
2018-09-25T16:41:31.307Z,53.50
2018-09-25T16:44:05.993Z,54.60
2018-09-25T16:46:40.568Z,55.00
2018-09-25T16:49:15.203Z,55.90
2018-09-25T16:51:49.842Z,56.60
2018-09-25T16:54:24.462Z,56.70
2018-09-25T16:56:59.088Z,57.40
2018-09-25T16:59:33.838Z,58.20
2018-09-25T17:02:08.511Z,57.50
2018-09-25T17:04:43.093Z,58.30
2018-09-25T17:07:17.788Z,58.80
2018-09-25T17:09:52.951Z,59.80
2018-09-25T17:12:27.724Z,60.40
2018-09-25T17:15:02.486Z,60.80
2018-09-25T17:17:37.068Z,62.00
2018-09-25T17:20:12.063Z,63.10
2018-09-25T17:22:46.726Z,63.30
2018-09-25T17:25:21.409Z,63.40
2018-09-25T17:27:56.118Z,64.50
2018-09-25T17:30:31.073Z,65.80
2018-09-25T17:33:06.147Z,65.50
2018-09-25T17:35:40.946Z,65.60
2018-09-25T17:38:15.634Z,66.80
2018-09-25T17:43:43.821Z,68.50
2018-09-25T17:46:18.610Z,68.80
2018-09-25T17:48:53.295Z,68.30
2018-09-25T17:51:27.905Z,70.30
2018-09-25T17:54:02.665Z,70.10
2018-09-25T17:56:37.517Z,70.70
2018-09-25T17:59:12.265Z,69.60
2018-09-25T18:01:47.077Z,70.80
2018-09-25T18:04:21.762Z,71.00
2018-09-25T18:06:56.463Z,72.20
2018-09-25T18:09:31.133Z,71.10
2018-09-25T18:12:05.880Z,72.30
2018-09-25T18:14:40.457Z,73.10
2018-09-25T18:17:15.111Z,72.90
2018-09-25T18:19:49.910Z,73.20
2018-09-25T18:22:24.712Z,74.30
2018-09-25T18:24:59.476Z,74.60
2018-09-25T18:27:34.160Z,75.30
2018-09-25T18:30:08.761Z,75.90
2018-09-25T18:32:43.654Z,75.90
2018-09-25T18:35:19.712Z,76.80
2018-09-25T18:37:55.668Z,76.00
2018-09-25T18:40:31.684Z,75.80
2018-09-25T18:43:06.993Z,76.30
2018-09-25T18:45:42.939Z,76.20
2018-09-25T18:48:17.964Z,76.90
2018-09-25T18:50:52.708Z,77.10
2018-09-25T18:53:27.412Z,77.20
2018-09-25T18:56:02.061Z,77.20
2018-09-25T18:58:36.790Z,77.20
2018-09-25T19:01:11.715Z,77.70
2018-09-25T19:03:46.381Z,77.70
2018-09-25T19:06:21.265Z,77.70
2018-09-25T19:08:55.983Z,77.90
2018-09-25T19:11:30.604Z,78.10
2018-09-25T19:14:05.274Z,78.20
2018-09-25T19:16:39.953Z,77.00
2018-09-25T19:19:14.677Z,78.50
2018-09-25T19:21:49.638Z,78.40
2018-09-25T19:24:24.491Z,78.00
2018-09-25T19:26:59.341Z,79.20
2018-09-25T19:29:34.082Z,78.30
2018-09-25T19:32:08.769Z,78.90
2018-09-25T19:34:43.435Z,79.30
2018-09-25T19:37:18.116Z,78.80
2018-09-25T19:39:52.786Z,79.60
2018-09-25T19:42:27.558Z,80.40
2018-09-25T19:45:02.279Z,80.80
2018-09-25T19:47:36.933Z,80.40
2018-09-25T19:50:11.749Z,80.70
2018-09-25T19:52:46.234Z,80.70
2018-09-25T19:55:21.160Z,80.50
2018-09-25T19:57:55.771Z,80.00
2018-09-25T20:00:30.614Z,80.00
2018-09-25T20:03:05.208Z,80.30
2018-09-25T20:05:39.944Z,80.20
2018-09-25T20:08:14.666Z,79.50
2018-09-25T20:10:49.214Z,78.90
2018-09-25T20:13:23.972Z,79.70
2018-09-25T20:15:58.558Z,79.70
2018-09-25T20:18:33.199Z,79.80
2018-09-25T20:21:07.941Z,79.80
2018-09-25T20:23:42.615Z,80.60
2018-09-25T20:26:17.192Z,80.70
2018-09-25T20:28:51.759Z,81.70
2018-09-25T20:31:26.634Z,81.60
2018-09-25T20:34:01.289Z,81.00
2018-09-25T20:36:35.858Z,81.40
2018-09-25T20:39:10.989Z,80.90
2018-09-25T20:41:45.557Z,81.10
2018-09-25T20:44:20.342Z,80.90
2018-09-25T20:46:55.020Z,81.30
2018-09-25T20:49:29.598Z,81.30
2018-09-25T20:52:04.250Z,81.30
2018-09-25T20:54:38.943Z,80.80
2018-09-25T20:57:13.801Z,81.10
2018-09-25T20:59:48.500Z,81.50
2018-09-25T21:02:23.297Z,81.10
2018-09-25T21:04:57.829Z,80.30
2018-09-25T21:07:32.414Z,81.40
2018-09-25T21:10:07.039Z,81.20
2018-09-25T21:12:41.650Z,81.00
2018-09-25T21:15:16.310Z,80.90
2018-09-25T21:17:50.878Z,80.40
2018-09-25T21:20:25.599Z,80.50
2018-09-25T21:23:00.348Z,80.80
2018-09-25T21:25:34.927Z,80.00
2018-09-25T21:28:09.639Z,80.20
2018-09-25T21:30:44.339Z,80.00
2018-09-25T21:33:19.206Z,80.00
2018-09-25T21:35:53.878Z,80.40
2018-09-25T21:38:28.696Z,80.10
2018-09-25T21:41:03.350Z,79.60
2018-09-25T21:43:38.216Z,80.00
2018-09-25T21:46:12.882Z,80.10
2018-09-25T21:48:47.571Z,80.30
2018-09-25T21:51:22.413Z,79.80
2018-09-25T21:53:57.010Z,79.80
2018-09-25T21:56:31.665Z,79.20
2018-09-25T21:59:06.222Z,77.90
2018-09-25T22:01:40.980Z,78.50
2018-09-25T22:04:15.719Z,79.00
2018-09-25T22:06:50.450Z,78.80
2018-09-25T22:09:25.121Z,78.70
2018-09-25T22:11:59.770Z,78.60
2018-09-25T22:14:34.497Z,79.10
2018-09-25T22:17:09.217Z,78.80
2018-09-25T22:19:43.863Z,79.30
2018-09-25T22:22:18.505Z,78.80
2018-09-25T22:24:53.337Z,79.30
2018-09-25T22:27:28.025Z,79.40
2018-09-25T22:30:02.861Z,78.90
2018-09-25T22:32:37.620Z,79.00
2018-09-25T22:35:12.504Z,78.80
2018-09-25T22:37:47.197Z,78.60
2018-09-25T22:40:21.699Z,79.00
2018-09-25T22:42:56.242Z,79.10
2018-09-25T22:45:30.929Z,78.80
2018-09-25T22:48:05.667Z,79.30
2018-09-25T22:50:40.337Z,79.10
2018-09-25T22:53:14.991Z,78.90
2018-09-25T22:55:49.498Z,78.40
2018-09-25T22:58:24.098Z,79.10
2018-09-25T23:00:58.953Z,79.10
2018-09-25T23:03:33.550Z,79.20
2018-09-25T23:06:08.140Z,79.30
2018-09-25T23:08:42.814Z,79.20
2018-09-25T23:11:17.433Z,79.30
2018-09-25T23:13:51.918Z,79.30
2018-09-25T23:16:26.751Z,79.40
2018-09-25T23:19:01.397Z,79.30
2018-09-25T23:21:36.099Z,79.60
2018-09-25T23:24:10.758Z,80.20
2018-09-25T23:26:45.341Z,79.90
2018-09-25T23:29:19.976Z,79.80
2018-09-25T23:31:54.828Z,79.60
2018-09-25T23:34:29.485Z,78.80
2018-09-25T23:37:04.093Z,79.70
2018-09-25T23:39:38.764Z,79.40
2018-09-25T23:43:17.656Z,78.80
2018-09-25T23:46:50.227Z,78.20
2018-09-25T23:49:24.091Z,79.00
2018-09-25T23:52:02.096Z,78.50
2018-09-25T23:54:35.586Z,77.80
2018-09-25T23:57:10.456Z,78.10
2018-09-25T23:59:47.555Z,78.70
